createdAt,value
2023-02-12T00:00:38.136Z,9.63
2023-02-12T00:02:48.152Z,9.73
2023-02-12T00:04:52.871Z,8.85
2023-02-12T00:06:58.035Z,10.15
2023-02-12T00:09:03.558Z,8.98
2023-02-12T00:11:13.659Z,8.45
2023-02-12T00:13:21.136Z,10.57
2023-02-12T00:15:26.895Z,9.57
2023-02-12T00:17:32.093Z,10.65
2023-02-12T00:19:40.048Z,8.77
2023-02-12T00:21:46.595Z,10.93
2023-02-12T00:23:54.169Z,8.73
2023-02-12T00:25:59.005Z,9.18
2023-02-12T00:28:04.007Z,10.00
2023-02-12T00:30:10.470Z,8.60
2023-02-12T00:32:19.697Z,8.85
2023-02-12T00:34:25.290Z,9.70
2023-02-12T00:36:34.828Z,8.88
2023-02-12T00:38:40.010Z,9.50
2023-02-12T00:40:47.944Z,9.45
2023-02-12T00:42:53.901Z,9.73
2023-02-12T00:44:58.926Z,10.80
2023-02-12T00:47:04.068Z,8.95
2023-02-12T00:49:12.121Z,8.85
2023-02-12T00:51:17.700Z,9.05
2023-02-12T00:53:26.052Z,9.52
2023-02-12T00:55:33.525Z,9.70
2023-02-12T00:57:39.945Z,10.23
2023-02-12T00:59:48.250Z,9.55
2023-02-12T01:01:53.326Z,9.32
2023-02-12T01:03:59.472Z,8.07
2023-02-12T01:06:04.509Z,8.05
2023-02-12T01:08:10.176Z,8.77
2023-02-12T01:10:17.727Z,8.93
2023-02-12T01:12:22.637Z,8.73
2023-02-12T01:14:28.007Z,8.73
2023-02-12T01:16:36.570Z,9.30
2023-02-12T01:18:42.703Z,8.00
2023-02-12T01:20:47.781Z,8.25
2023-02-12T01:22:53.183Z,8.35
2023-02-12T01:25:00.743Z,8.13
2023-02-12T01:27:08.264Z,8.20
2023-02-12T01:29:13.671Z,8.50
2023-02-12T01:31:22.048Z,7.88
2023-02-12T01:33:27.417Z,8.13
2023-02-12T01:35:32.496Z,7.57
2023-02-12T01:37:39.415Z,7.53
2023-02-12T01:39:46.855Z,8.05
2023-02-12T01:41:51.903Z,8.82
2023-02-12T01:44:18.495Z,8.77
2023-02-12T01:46:23.530Z,8.50
2023-02-12T01:48:31.945Z,8.95
2023-02-12T01:50:37.397Z,8.23
2023-02-12T01:52:48.741Z,7.97
2023-02-12T01:54:57.267Z,7.45
2023-02-12T01:57:03.731Z,7.35
2023-02-12T01:59:14.190Z,7.25
2023-02-12T02:01:24.812Z,8.00
2023-02-12T02:03:30.969Z,7.18
2023-02-12T02:05:46.100Z,7.13
2023-02-12T02:07:51.720Z,6.72
2023-02-12T02:09:58.001Z,7.65
2023-02-12T02:12:30.184Z,7.40
2023-02-12T02:14:37.731Z,7.28
2023-02-12T02:16:46.661Z,7.93
2023-02-12T02:18:58.880Z,7.00
2023-02-12T02:21:22.827Z,7.03
2023-02-12T02:24:03.717Z,7.53
2023-02-12T02:26:31.363Z,6.68
2023-02-12T02:28:56.381Z,6.95
2023-02-12T02:31:11.419Z,8.15
2023-02-12T02:33:39.204Z,7.25
2023-02-12T02:35:57.995Z,7.63
2023-02-12T02:38:21.270Z,7.07
2023-02-12T02:40:28.706Z,7.38
2023-02-12T02:42:40.006Z,6.85
2023-02-12T02:44:51.439Z,8.73
2023-02-12T02:47:01.593Z,8.25
2023-02-12T02:49:09.292Z,8.15
2023-02-12T02:51:23.212Z,8.38
2023-02-12T02:53:32.911Z,8.05
2023-02-12T02:55:51.955Z,7.53
2023-02-12T02:58:00.789Z,7.80
2023-02-12T03:00:16.213Z,7.97
2023-02-12T03:02:28.311Z,7.63
2023-02-12T03:04:37.655Z,7.65
2023-02-12T03:06:49.474Z,8.00
2023-02-12T03:09:01.088Z,9.18
2023-02-12T03:11:13.098Z,8.18
2023-02-12T03:13:23.318Z,8.65
2023-02-12T03:15:35.160Z,9.25
2023-02-12T03:17:48.177Z,11.48
2023-02-12T03:19:59.224Z,11.30
2023-02-12T03:22:07.718Z,10.75
2023-02-12T03:24:17.565Z,10.10
2023-02-12T03:26:28.627Z,10.57
2023-02-12T03:28:36.694Z,9.77
2023-02-12T03:30:48.923Z,9.95
2023-02-12T03:33:04.972Z,11.18
2023-02-12T03:35:16.707Z,9.10
2023-02-12T03:37:25.226Z,9.63
2023-02-12T03:39:33.759Z,6.97
2023-02-12T03:41:46.679Z,7.78
2023-02-12T03:43:55.584Z,7.63
2023-02-12T03:46:09.688Z,6.82
2023-02-12T03:48:24.953Z,6.72
2023-02-12T03:50:39.389Z,7.22
2023-02-12T03:52:45.333Z,6.95
2023-02-12T03:54:50.853Z,6.90
2023-02-12T03:57:01.827Z,6.93
2023-02-12T03:59:07.735Z,6.95
2023-02-12T04:01:13.298Z,8.18
2023-02-12T04:03:21.120Z,7.90
2023-02-12T04:05:28.859Z,8.93
2023-02-12T04:07:33.867Z,10.38
2023-02-12T04:09:41.871Z,10.38
2023-02-12T04:11:58.504Z,9.30
2023-02-12T04:14:17.047Z,8.18
2023-02-12T04:16:30.732Z,8.85
2023-02-12T04:18:47.535Z,8.88
2023-02-12T04:21:01.564Z,7.82
2023-02-12T04:23:16.590Z,7.57
2023-02-12T04:25:38.390Z,8.65
2023-02-12T04:27:51.876Z,8.05
2023-02-12T04:30:01.364Z,7.60
2023-02-12T04:32:15.251Z,7.40
2023-02-12T04:34:34.270Z,7.63
2023-02-12T04:36:46.172Z,6.97
2023-02-12T04:38:56.912Z,8.27
2023-02-12T04:41:03.752Z,8.98
2023-02-12T04:43:09.456Z,7.82
2023-02-12T04:45:16.128Z,7.20
2023-02-12T04:47:23.847Z,8.15
2023-02-12T04:49:32.327Z,8.63
2023-02-12T04:51:37.373Z,7.65
2023-02-12T04:53:42.249Z,7.72
2023-02-12T04:55:47.916Z,8.60
2023-02-12T04:57:52.802Z,7.60
2023-02-12T04:59:57.877Z,8.45
2023-02-12T05:02:02.958Z,9.13
2023-02-12T05:04:09.901Z,8.38
2023-02-12T05:06:17.500Z,7.20
2023-02-12T05:08:22.617Z,8.05
2023-02-12T05:10:27.516Z,7.03
2023-02-12T05:12:32.890Z,7.57
2023-02-12T05:14:37.944Z,7.90
2023-02-12T05:16:43.028Z,7.22
2023-02-12T05:18:48.255Z,7.55
2023-02-12T05:20:58.960Z,7.88
2023-02-12T05:23:06.858Z,7.03
2023-02-12T05:25:11.988Z,8.18
2023-02-12T05:27:16.936Z,7.85
2023-02-12T05:29:22.111Z,7.30
2023-02-12T05:31:27.264Z,8.10
2023-02-12T05:33:32.580Z,7.82
2023-02-12T05:35:38.083Z,7.57
2023-02-12T05:37:42.990Z,9.00
2023-02-12T05:39:55.352Z,8.30
2023-02-12T05:42:00.492Z,8.05
2023-02-12T05:44:07.220Z,7.13
2023-02-12T05:46:12.983Z,7.72
2023-02-12T05:48:18.211Z,8.73
2023-02-12T05:50:23.339Z,8.63
2023-02-12T05:52:28.306Z,8.63
2023-02-12T05:54:33.512Z,8.93
2023-02-12T05:56:45.293Z,8.48
2023-02-12T05:58:52.309Z,8.80
2023-02-12T06:00:59.618Z,9.38
2023-02-12T06:03:06.223Z,7.82
2023-02-12T06:05:11.433Z,10.23
2023-02-12T06:07:16.418Z,9.40
2023-02-12T06:09:21.286Z,11.00
2023-02-12T06:11:26.564Z,11.07
2023-02-12T06:13:37.282Z,11.23
2023-02-12T06:15:42.209Z,11.75
2023-02-12T06:17:46.933Z,10.98
2023-02-12T06:19:51.913Z,10.95
2023-02-12T06:21:57.013Z,11.25
2023-02-12T06:24:02.931Z,11.95
2023-02-12T06:26:07.980Z,11.18
2023-02-12T06:28:12.812Z,12.18
2023-02-12T06:30:20.726Z,11.50
2023-02-12T06:32:25.767Z,12.50
2023-02-12T06:34:30.678Z,13.32
2023-02-12T06:36:36.409Z,11.82
2023-02-12T06:38:41.270Z,12.02
2023-02-12T06:40:48.886Z,12.23
2023-02-12T06:42:53.570Z,12.00
2023-02-12T06:44:59.401Z,14.82
2023-02-12T06:47:07.166Z,14.50
2023-02-12T06:49:16.857Z,14.35
2023-02-12T06:51:23.588Z,14.35
2023-02-12T06:53:28.896Z,13.50
2023-02-12T06:55:34.314Z,13.30
2023-02-12T06:57:40.033Z,13.20
2023-02-12T06:59:45.103Z,12.82
2023-02-12T07:01:50.068Z,13.45
2023-02-12T07:03:59.560Z,15.20
2023-02-12T07:06:06.695Z,13.07
2023-02-12T07:08:11.892Z,11.55
2023-02-12T07:10:16.710Z,13.23
2023-02-12T07:12:21.539Z,11.27
2023-02-12T07:14:26.843Z,11.95
2023-02-12T07:16:32.435Z,12.25
2023-02-12T07:18:37.848Z,12.20
2023-02-12T07:20:45.414Z,11.98
2023-02-12T07:22:52.714Z,11.73
2023-02-12T07:24:57.657Z,11.45
2023-02-12T07:27:02.944Z,11.93
2023-02-12T07:29:08.410Z,11.20
2023-02-12T07:31:15.411Z,11.20
2023-02-12T07:33:20.927Z,10.80
2023-02-12T07:35:25.861Z,10.18
2023-02-12T07:37:37.289Z,11.65
2023-02-12T07:39:42.205Z,11.15
2023-02-12T07:41:47.102Z,9.90
2023-02-12T07:43:56.730Z,9.82
2023-02-12T07:46:09.545Z,9.73
2023-02-12T07:48:14.618Z,10.65
2023-02-12T07:50:19.918Z,11.30
2023-02-12T07:52:24.843Z,10.95
2023-02-12T07:54:32.532Z,11.30
2023-02-12T07:56:42.069Z,10.13
2023-02-12T07:58:51.420Z,11.10
2023-02-12T08:00:56.555Z,9.13
2023-02-12T08:03:01.472Z,11.68
2023-02-12T08:05:06.358Z,11.45
2023-02-12T08:07:11.452Z,10.55
2023-02-12T08:09:19.167Z,11.75
2023-02-12T08:11:27.582Z,11.27
2023-02-12T08:13:32.508Z,11.57
2023-02-12T08:15:37.632Z,10.88
2023-02-12T08:17:43.709Z,11.57
2023-02-12T08:19:51.405Z,11.32
2023-02-12T08:21:58.032Z,9.57
2023-02-12T08:24:03.819Z,10.20
2023-02-12T08:26:14.293Z,10.43
2023-02-12T08:28:23.388Z,12.65
2023-02-12T08:30:28.425Z,12.60
2023-02-12T08:32:33.964Z,11.27
2023-02-12T08:34:41.326Z,10.35
2023-02-12T08:36:46.587Z,11.73
2023-02-12T08:38:52.037Z,10.15
2023-02-12T08:40:59.012Z,10.30
2023-02-12T08:43:03.962Z,10.18
2023-02-12T08:45:12.916Z,9.98
2023-02-12T08:47:17.839Z,10.35
2023-02-12T08:49:25.399Z,9.30
2023-02-12T08:51:33.150Z,9.43
2023-02-12T08:53:38.214Z,9.80
2023-02-12T08:55:43.120Z,9.25
2023-02-12T08:57:48.043Z,12.95
2023-02-12T08:59:52.860Z,11.43
2023-02-12T09:02:01.045Z,11.95
2023-02-12T09:04:06.198Z,10.50
2023-02-12T09:06:12.262Z,10.35
2023-02-12T09:08:17.016Z,9.68
2023-02-12T09:10:22.226Z,9.65
2023-02-12T09:12:27.055Z,10.68
2023-02-12T09:14:32.191Z,10.43
2023-02-12T09:16:40.062Z,10.70
2023-02-12T09:18:50.139Z,11.15
2023-02-12T09:20:57.491Z,10.35
2023-02-12T09:23:02.536Z,10.75
2023-02-12T09:25:08.206Z,10.35
2023-02-12T09:27:13.115Z,11.38
2023-02-12T09:29:17.985Z,9.43
2023-02-12T09:31:26.748Z,11.30
2023-02-12T09:33:31.756Z,10.55
2023-02-12T09:35:41.275Z,11.18
2023-02-12T09:37:46.694Z,11.77
2023-02-12T09:39:51.722Z,10.60
2023-02-12T09:42:23.136Z,10.52
2023-02-12T09:44:36.107Z,11.38
2023-02-12T09:46:52.875Z,10.40
2023-02-12T09:49:08.746Z,10.23
2023-02-12T09:51:17.138Z,10.57
2023-02-12T09:53:24.446Z,11.13
2023-02-12T09:55:32.981Z,10.48
2023-02-12T09:57:40.583Z,10.98
2023-02-12T09:59:50.851Z,11.68
2023-02-12T10:01:55.713Z,10.77
2023-02-12T10:04:04.201Z,10.65
2023-02-12T10:06:16.782Z,9.85
2023-02-12T10:08:43.922Z,10.45
2023-02-12T10:10:54.719Z,11.32
2023-02-12T10:13:03.057Z,9.85
2023-02-12T10:15:24.011Z,10.63
2023-02-12T10:17:43.328Z,10.80
2023-02-12T10:20:11.145Z,11.68
2023-02-12T10:22:27.204Z,10.27
2023-02-12T10:25:02.422Z,11.85
2023-02-12T10:27:15.161Z,10.20
2023-02-12T10:29:23.344Z,10.65
2023-02-12T10:31:33.317Z,11.07
2023-02-12T10:33:40.701Z,11.43
2023-02-12T10:35:50.625Z,10.20
2023-02-12T10:38:00.598Z,9.55
2023-02-12T10:40:19.620Z,10.25
2023-02-12T10:42:38.690Z,10.15
2023-02-12T10:44:43.613Z,10.50
2023-02-12T10:46:49.905Z,11.65
2023-02-12T10:48:59.030Z,10.23
2023-02-12T10:51:26.350Z,10.48
2023-02-12T10:53:36.494Z,11.00
2023-02-12T10:55:44.339Z,10.13
2023-02-12T10:57:50.842Z,10.63
2023-02-12T10:59:58.971Z,11.85
2023-02-12T11:02:04.071Z,9.55
2023-02-12T11:04:27.576Z,10.30
2023-02-12T11:08:41.862Z,10.70
2023-02-12T11:10:49.875Z,11.73
2023-02-12T11:12:54.893Z,10.93
2023-02-12T11:15:04.915Z,11.75
2023-02-12T11:17:09.916Z,11.38
2023-02-12T11:19:24.577Z,10.35
2023-02-12T11:21:29.844Z,11.15
2023-02-12T11:23:37.296Z,10.32
2023-02-12T11:25:57.381Z,9.70
2023-02-12T11:28:11.649Z,10.45
2023-02-12T11:30:24.783Z,9.60
2023-02-12T11:32:30.024Z,9.40
2023-02-12T11:34:35.113Z,10.15
2023-02-12T11:36:44.042Z,8.90
2023-02-12T11:38:54.789Z,9.75
2023-02-12T11:41:07.143Z,8.93
2023-02-12T11:43:21.212Z,9.10
2023-02-12T11:45:33.141Z,10.05
2023-02-12T11:47:44.531Z,9.90
2023-02-12T11:49:56.879Z,9.45
2023-02-12T11:52:07.155Z,10.48
2023-02-12T11:54:23.768Z,10.73
2023-02-12T11:56:50.884Z,10.30
2023-02-12T11:59:31.949Z,10.50
2023-02-12T12:01:42.070Z,9.52
2023-02-12T12:03:56.015Z,10.20
2023-02-12T12:06:08.049Z,9.80
2023-02-12T12:08:20.810Z,9.98
2023-02-12T12:10:38.133Z,9.65
2023-02-12T12:12:48.864Z,7.97
2023-02-12T12:15:12.416Z,7.93
2023-02-12T12:17:32.532Z,7.65
2023-02-12T12:19:56.824Z,8.43
2023-02-12T12:22:07.376Z,7.55
2023-02-12T12:24:16.779Z,7.78
2023-02-12T12:26:27.949Z,7.47
2023-02-12T12:28:39.282Z,7.63
2023-02-12T12:31:05.084Z,7.95
2023-02-12T12:33:20.276Z,9.00
2023-02-12T12:35:39.343Z,7.50
2023-02-12T12:37:55.949Z,7.63
2023-02-12T12:40:15.168Z,7.72
2023-02-12T12:42:51.806Z,7.22
2023-02-12T12:45:18.887Z,8.50
2023-02-12T12:47:39.804Z,7.32
2023-02-12T12:50:08.011Z,7.72
2023-02-12T12:52:51.553Z,7.63
2023-02-12T12:55:07.077Z,7.97
2023-02-12T12:57:26.144Z,7.20
2023-02-12T13:00:00.772Z,7.30
2023-02-12T13:02:44.248Z,7.95
2023-02-12T13:05:21.442Z,8.52
2023-02-12T13:07:47.766Z,7.57
2023-02-12T13:10:10.015Z,8.85
2023-02-12T13:12:36.725Z,8.73
2023-02-12T13:14:51.162Z,8.48
2023-02-12T13:17:04.306Z,9.50
2023-02-12T13:21:42.003Z,9.20
2023-02-12T13:23:55.561Z,9.18
2023-02-12T13:26:08.536Z,9.15
2023-02-12T13:28:19.786Z,8.45
2023-02-12T13:30:28.181Z,10.45
2023-02-12T13:32:37.706Z,10.45
2023-02-12T13:34:48.364Z,10.27
2023-02-12T13:37:01.405Z,10.75
2023-02-12T13:41:16.460Z,9.38
2023-02-12T13:43:39.392Z,10.52
2023-02-12T13:45:53.748Z,11.48
2023-02-12T13:48:19.882Z,10.73
2023-02-12T13:50:38.327Z,9.35
2023-02-12T13:52:53.912Z,10.35
2023-02-12T13:55:18.120Z,9.63
2023-02-12T13:57:24.754Z,10.50
2023-02-12T13:59:50.841Z,9.60
2023-02-12T14:01:56.869Z,9.45
2023-02-12T14:04:18.250Z,10.02
2023-02-12T14:06:25.370Z,9.77
2023-02-12T14:08:40.260Z,8.98
2023-02-12T14:10:45.555Z,9.95
2023-02-12T14:12:54.161Z,9.23
2023-02-12T14:15:09.961Z,11.23
2023-02-12T14:17:55.949Z,8.43
2023-02-12T14:20:25.129Z,9.38
2023-02-12T14:23:17.528Z,9.25
2023-02-12T14:25:44.232Z,8.90
2023-02-12T14:27:54.105Z,10.27
2023-02-12T14:30:30.007Z,11.30
2023-02-12T14:33:22.248Z,10.10
2023-02-12T14:35:41.990Z,10.90
2023-02-12T14:37:47.153Z,11.20
2023-02-12T14:39:52.196Z,10.32
2023-02-12T14:42:37.316Z,11.38
2023-02-12T14:44:52.255Z,10.23
2023-02-12T14:47:02.907Z,11.18
2023-02-12T14:49:08.774Z,10.98
2023-02-12T14:51:21.388Z,10.20
2023-02-12T14:53:32.874Z,10.00
2023-02-12T14:55:43.766Z,10.65
2023-02-12T14:57:52.315Z,9.90
2023-02-12T15:00:04.484Z,9.75
2023-02-12T15:02:16.852Z,10.77
2023-02-12T15:04:28.427Z,10.00
2023-02-12T15:06:44.717Z,11.27
2023-02-12T15:08:57.408Z,10.60
2023-02-12T15:11:12.369Z,11.70
2023-02-12T15:13:29.712Z,11.68
2023-02-12T15:15:45.932Z,12.43
2023-02-12T15:18:01.153Z,13.75
2023-02-12T15:20:11.341Z,12.30
2023-02-12T15:22:24.500Z,13.23
2023-02-12T15:24:30.939Z,12.70
2023-02-12T15:26:41.422Z,13.00
2023-02-12T15:28:50.927Z,13.52
2023-02-12T15:31:00.418Z,14.50
2023-02-12T15:33:08.005Z,12.95
2023-02-12T15:35:26.796Z,14.35
2023-02-12T15:37:36.962Z,14.15
2023-02-12T15:39:47.025Z,12.88
2023-02-12T15:41:53.076Z,15.40
2023-02-12T15:44:01.517Z,14.70
2023-02-12T15:46:18.282Z,14.63
2023-02-12T15:48:25.813Z,14.90
2023-02-12T15:50:32.965Z,15.77
2023-02-12T15:52:42.674Z,14.95
2023-02-12T15:54:52.620Z,15.85
2023-02-12T15:56:58.815Z,16.40
2023-02-12T15:59:05.398Z,16.55
2023-02-12T16:01:22.509Z,15.25
2023-02-12T16:03:30.673Z,19.58
2023-02-12T16:05:36.553Z,17.35
2023-02-12T16:07:41.793Z,18.05
2023-02-12T16:09:47.877Z,16.02
2023-02-12T16:11:54.615Z,16.27
2023-02-12T16:14:03.974Z,16.83
2023-02-12T16:16:22.338Z,15.20
2023-02-12T16:18:29.228Z,14.85
2023-02-12T16:20:38.205Z,13.68
2023-02-12T16:22:48.149Z,14.63
2023-02-12T16:24:56.768Z,13.40
2023-02-12T16:27:10.826Z,15.50
2023-02-12T16:29:20.831Z,13.57
2023-02-12T16:31:30.981Z,15.48
2023-02-12T16:33:38.983Z,14.95
2023-02-12T16:35:43.953Z,13.48
2023-02-12T16:37:51.682Z,17.25
2023-02-12T16:40:22.745Z,18.00
2023-02-12T16:42:30.563Z,15.63
2023-02-12T16:44:37.557Z,16.20
2023-02-12T16:46:55.738Z,15.82
2023-02-12T16:49:03.880Z,14.55
2023-02-12T16:51:09.424Z,15.85
2023-02-12T16:53:28.818Z,17.25
2023-02-12T16:55:34.610Z,14.25
2023-02-12T16:57:39.936Z,14.68
2023-02-12T16:59:45.566Z,15.05
2023-02-12T17:02:04.306Z,15.43
2023-02-12T17:04:18.247Z,16.08
2023-02-12T17:06:24.826Z,15.70
2023-02-12T17:08:29.846Z,16.23
2023-02-12T17:10:35.180Z,15.38
2023-02-12T17:12:50.807Z,13.50
2023-02-12T17:14:59.481Z,14.20
2023-02-12T17:17:07.217Z,17.55
2023-02-12T17:19:12.127Z,17.00
2023-02-12T17:21:29.207Z,15.75
2023-02-12T17:23:35.380Z,14.82
2023-02-12T17:25:40.618Z,15.45
2023-02-12T17:27:48.621Z,14.55
2023-02-12T17:29:53.680Z,15.00
2023-02-12T17:31:59.938Z,15.95
2023-02-12T17:34:08.627Z,13.30
2023-02-12T17:36:15.206Z,14.27
2023-02-12T17:38:20.271Z,15.15
2023-02-12T17:40:25.349Z,16.35
2023-02-12T17:42:31.310Z,15.32
2023-02-12T17:44:40.178Z,15.10
2023-02-12T17:46:47.035Z,16.77
2023-02-12T17:48:51.868Z,15.05
2023-02-12T17:51:01.256Z,16.17
2023-02-12T17:53:06.779Z,19.45
2023-02-12T17:55:14.054Z,16.00
2023-02-12T17:57:21.695Z,16.88
2023-02-12T17:59:26.623Z,16.45
2023-02-12T18:01:31.677Z,17.65
2023-02-12T18:03:36.901Z,17.42
2023-02-12T18:05:45.342Z,16.30
2023-02-12T18:07:53.122Z,18.10
2023-02-12T18:09:57.937Z,16.35
2023-02-12T18:12:02.755Z,16.67
2023-02-12T18:14:08.009Z,15.48
2023-02-12T18:16:17.937Z,15.30
2023-02-12T18:18:22.791Z,20.95
2023-02-12T18:20:27.718Z,18.73
2023-02-12T18:22:32.858Z,32.53
2023-02-12T18:24:41.489Z,28.25
2023-02-12T18:26:46.730Z,25.90
2023-02-12T18:28:54.011Z,16.48
2023-02-12T18:31:01.415Z,95.43
2023-02-12T18:33:07.048Z,51.72
2023-02-12T18:35:12.459Z,22.42
2023-02-12T18:37:17.719Z,24.20
2023-02-12T18:39:22.664Z,25.13
2023-02-12T18:41:33.072Z,24.67
2023-02-12T18:43:38.678Z,26.65
2023-02-12T18:45:46.898Z,34.45
2023-02-12T18:47:52.006Z,26.42
2023-02-12T18:49:58.185Z,28.42
2023-02-12T18:52:03.111Z,31.75
2023-02-12T18:54:15.166Z,23.08
2023-02-12T18:56:20.325Z,27.83
2023-02-12T18:58:27.917Z,28.27
2023-02-12T19:00:33.023Z,23.55
2023-02-12T19:02:38.449Z,19.98
2023-02-12T19:04:43.447Z,21.25
2023-02-12T19:06:50.577Z,21.95
2023-02-12T19:08:57.957Z,20.48
2023-02-12T19:11:02.856Z,55.05
2023-02-12T19:13:07.821Z,40.83
2023-02-12T19:15:15.588Z,22.15
2023-02-12T19:17:20.537Z,19.08
2023-02-12T19:19:25.975Z,34.75
2023-02-12T19:21:31.359Z,41.25
2023-02-12T19:23:36.859Z,19.80
2023-02-12T19:25:44.615Z,20.02
2023-02-12T19:27:49.959Z,36.83
2023-02-12T19:29:54.829Z,31.83
2023-02-12T19:32:03.666Z,27.38
2023-02-12T19:34:16.573Z,20.83
2023-02-12T19:36:23.048Z,19.67
2023-02-12T19:38:28.474Z,18.48
2023-02-12T19:40:34.189Z,25.15
2023-02-12T19:42:40.082Z,23.92
2023-02-12T19:44:46.800Z,36.08
2023-02-12T19:46:53.126Z,18.02
2023-02-12T19:49:03.373Z,19.73
2023-02-12T19:51:10.335Z,56.97
2023-02-12T19:53:15.427Z,40.67
2023-02-12T19:55:20.621Z,31.10
2023-02-12T19:57:25.559Z,76.07
2023-02-12T19:59:30.471Z,89.13
2023-02-12T20:01:36.371Z,35.17
2023-02-12T20:03:42.405Z,25.88
2023-02-12T20:05:53.195Z,29.30
2023-02-12T20:07:58.292Z,31.23
2023-02-12T20:10:06.603Z,70.70
2023-02-12T20:12:11.682Z,51.55
2023-02-12T20:14:21.100Z,33.22
2023-02-12T20:16:31.367Z,31.75
2023-02-12T20:18:37.313Z,18.65
2023-02-12T20:20:42.957Z,18.77
2023-02-12T20:22:53.793Z,15.02
2023-02-12T20:24:59.191Z,17.55
2023-02-12T20:27:07.017Z,17.50
2023-02-12T20:29:12.411Z,16.67
2023-02-12T20:31:19.675Z,16.83
2023-02-12T20:33:24.717Z,17.27
2023-02-12T20:35:29.859Z,16.40
2023-02-12T20:37:38.673Z,17.42
2023-02-12T20:39:46.855Z,15.75
2023-02-12T20:41:52.522Z,16.30
2023-02-12T20:43:58.136Z,15.52
2023-02-12T20:46:08.736Z,14.70
2023-02-12T20:48:13.583Z,15.75
2023-02-12T20:50:20.872Z,15.15
2023-02-12T20:52:27.259Z,15.55
2023-02-12T20:54:32.214Z,15.43
2023-02-12T20:56:44.641Z,16.67
2023-02-12T20:58:50.765Z,16.25
2023-02-12T21:00:56.187Z,15.25
2023-02-12T21:03:04.096Z,15.38
2023-02-12T21:05:12.481Z,16.02
2023-02-12T21:07:18.555Z,15.13
2023-02-12T21:09:23.824Z,13.82
2023-02-12T21:11:30.813Z,16.40
2023-02-12T21:13:39.915Z,17.02
2023-02-12T21:15:45.186Z,15.80
2023-02-12T21:17:50.493Z,16.48
2023-02-12T21:19:55.621Z,16.95
2023-02-12T21:22:00.736Z,16.33
2023-02-12T21:24:11.219Z,17.95
2023-02-12T21:26:18.709Z,17.80
2023-02-12T21:28:26.693Z,16.98
2023-02-12T21:30:36.753Z,17.23
2023-02-12T21:32:41.811Z,18.98
2023-02-12T21:34:48.653Z,17.35
2023-02-12T21:36:58.953Z,18.23
2023-02-12T21:39:04.219Z,18.27
2023-02-12T21:41:11.783Z,17.92
2023-02-12T21:43:16.876Z,17.77
2023-02-12T21:45:21.924Z,17.75
2023-02-12T21:47:29.821Z,17.88
2023-02-12T21:49:35.170Z,18.13
2023-02-12T21:51:42.994Z,20.23
2023-02-12T21:53:48.207Z,19.08
2023-02-12T21:55:53.224Z,18.25
2023-02-12T21:57:58.158Z,17.80
2023-02-12T22:00:06.843Z,17.77
2023-02-12T22:02:13.581Z,17.67
2023-02-12T22:04:22.040Z,17.75
2023-02-12T22:06:27.645Z,18.50
2023-02-12T22:08:33.159Z,19.77
2023-02-12T22:10:40.285Z,18.92
2023-02-12T22:12:45.476Z,17.98
2023-02-12T22:14:53.215Z,18.35
2023-02-12T22:16:58.116Z,17.13
2023-02-12T22:19:04.634Z,16.80
2023-02-12T22:21:14.799Z,18.67
2023-02-12T22:23:19.672Z,16.98
2023-02-12T22:25:24.711Z,18.63
2023-02-12T22:27:29.659Z,19.35
2023-02-12T22:29:34.574Z,18.23
2023-02-12T22:31:42.477Z,17.95
2023-02-12T22:33:48.799Z,18.13
2023-02-12T22:35:53.793Z,16.33
2023-02-12T22:38:05.334Z,17.73
2023-02-12T22:40:12.541Z,18.45
2023-02-12T22:42:18.698Z,16.88
2023-02-12T22:44:23.583Z,17.17
2023-02-12T22:46:28.865Z,17.75
2023-02-12T22:48:33.724Z,17.40
2023-02-12T22:50:41.335Z,17.02
2023-02-12T22:52:47.588Z,16.85
2023-02-12T22:54:55.514Z,17.92
2023-02-12T22:57:00.572Z,15.93
2023-02-12T22:59:05.594Z,16.52
2023-02-12T23:01:11.757Z,17.30
2023-02-12T23:03:17.612Z,18.52
2023-02-12T23:05:22.696Z,18.45
2023-02-12T23:07:27.750Z,17.42
2023-02-12T23:09:33.051Z,17.63
2023-02-12T23:11:40.530Z,17.65
2023-02-12T23:13:48.783Z,18.27
2023-02-12T23:15:57.578Z,16.92
2023-02-12T23:18:02.479Z,18.13
2023-02-12T23:20:08.277Z,16.60
2023-02-12T23:22:13.286Z,16.92
2023-02-12T23:24:18.352Z,17.48
2023-02-12T23:26:25.537Z,17.60
2023-02-12T23:28:33.493Z,17.75
2023-02-12T23:30:39.376Z,17.02
2023-02-12T23:32:48.270Z,17.90
2023-02-12T23:35:02.543Z,17.38
2023-02-12T23:37:07.755Z,16.75
2023-02-12T23:39:15.190Z,16.98
2023-02-12T23:41:20.228Z,18.38
2023-02-12T23:43:25.310Z,17.50
2023-02-12T23:45:32.957Z,17.55
2023-02-12T23:47:38.087Z,17.33
2023-02-12T23:49:43.119Z,18.75
2023-02-12T23:51:49.783Z,17.35
2023-02-12T23:53:54.928Z,18.88
2023-02-12T23:56:00.472Z,18.67
2023-02-12T23:58:05.646Z,18.55
